sensor_id;sensor_type;location;lat;lon;timestamp;P1;durP1;ratioP1;P2;durP2;ratioP2
53688;SDS011;39583;54.682;30.662;2023-11-19T00:01:35;3.22;;;2.03;;
53688;SDS011;39583;54.682;30.662;2023-11-19T00:04:03;5.28;;;2.30;;
53688;SDS011;39583;54.682;30.662;2023-11-19T00:06:33;3.42;;;1.75;;
53688;SDS011;39583;54.682;30.662;2023-11-19T00:09:01;4.55;;;1.63;;
53688;SDS011;39583;54.682;30.662;2023-11-19T00:11:41;4.32;;;2.50;;
53688;SDS011;39583;54.682;30.662;2023-11-19T00:14:20;4.45;;;2.28;;
53688;SDS011;39583;54.682;30.662;2023-11-19T00:16:48;4.63;;;2.10;;
53688;SDS011;39583;54.682;30.662;2023-11-19T00:19:18;5.95;;;2.17;;
53688;SDS011;39583;54.682;30.662;2023-11-19T00:21:47;3.70;;;1.60;;
53688;SDS011;39583;54.682;30.662;2023-11-19T00:24:15;5.97;;;1.80;;
53688;SDS011;39583;54.682;30.662;2023-11-19T00:26:46;4.75;;;2.00;;
53688;SDS011;39583;54.682;30.662;2023-11-19T00:29:14;5.53;;;2.08;;
53688;SDS011;39583;54.682;30.662;2023-11-19T00:31:46;4.72;;;2.00;;
53688;SDS011;39583;54.682;30.662;2023-11-19T00:34:15;4.45;;;2.22;;
53688;SDS011;39583;54.682;30.662;2023-11-19T00:36:43;2.70;;;1.80;;
53688;SDS011;39583;54.682;30.662;2023-11-19T00:39:13;6.25;;;2.28;;
53688;SDS011;39583;54.682;30.662;2023-11-19T00:41:42;4.03;;;2.13;;
53688;SDS011;39583;54.682;30.662;2023-11-19T00:44:10;7.65;;;2.50;;
53688;SDS011;39583;54.682;30.662;2023-11-19T00:46:38;5.03;;;2.35;;
53688;SDS011;39583;54.682;30.662;2023-11-19T00:49:07;5.78;;;2.55;;
53688;SDS011;39583;54.682;30.662;2023-11-19T00:51:35;4.55;;;2.58;;
53688;SDS011;39583;54.682;30.662;2023-11-19T00:54:03;6.10;;;2.42;;
53688;SDS011;39583;54.682;30.662;2023-11-19T00:56:32;5.55;;;2.60;;
53688;SDS011;39583;54.682;30.662;2023-11-19T00:59:00;4.57;;;2.13;;
53688;SDS011;39583;54.682;30.662;2023-11-19T01:01:28;3.58;;;2.17;;
53688;SDS011;39583;54.682;30.662;2023-11-19T01:03:57;3.33;;;2.40;;
53688;SDS011;39583;54.682;30.662;2023-11-19T01:06:28;5.40;;;2.63;;
53688;SDS011;39583;54.682;30.662;2023-11-19T01:08:57;4.03;;;2.30;;
53688;SDS011;39583;54.682;30.662;2023-11-19T01:11:25;3.22;;;1.80;;
53688;SDS011;39583;54.682;30.662;2023-11-19T01:13:53;7.05;;;3.10;;
53688;SDS011;39583;54.682;30.662;2023-11-19T01:16:21;5.32;;;2.97;;
53688;SDS011;39583;54.682;30.662;2023-11-19T01:18:50;4.85;;;2.22;;
53688;SDS011;39583;54.682;30.662;2023-11-19T01:21:28;5.03;;;2.72;;
53688;SDS011;39583;54.682;30.662;2023-11-19T01:23:59;5.28;;;2.70;;
53688;SDS011;39583;54.682;30.662;2023-11-19T01:26:28;7.18;;;2.85;;
53688;SDS011;39583;54.682;30.662;2023-11-19T01:28:56;6.00;;;2.88;;
53688;SDS011;39583;54.682;30.662;2023-11-19T01:31:24;6.95;;;3.13;;
53688;SDS011;39583;54.682;30.662;2023-11-19T01:33:52;7.53;;;3.63;;
53688;SDS011;39583;54.682;30.662;2023-11-19T01:36:21;5.72;;;3.20;;
53688;SDS011;39583;54.682;30.662;2023-11-19T01:38:49;6.18;;;2.65;;
53688;SDS011;39583;54.682;30.662;2023-11-19T01:41:17;7.63;;;3.50;;
53688;SDS011;39583;54.682;30.662;2023-11-19T01:43:45;7.90;;;3.50;;
53688;SDS011;39583;54.682;30.662;2023-11-19T01:46:15;7.18;;;3.35;;
53688;SDS011;39583;54.682;30.662;2023-11-19T01:48:44;6.07;;;2.38;;
53688;SDS011;39583;54.682;30.662;2023-11-19T01:51:14;7.40;;;3.80;;
53688;SDS011;39583;54.682;30.662;2023-11-19T01:53:43;6.30;;;3.20;;
53688;SDS011;39583;54.682;30.662;2023-11-19T01:56:13;7.45;;;2.72;;
53688;SDS011;39583;54.682;30.662;2023-11-19T01:58:43;5.13;;;2.53;;
53688;SDS011;39583;54.682;30.662;2023-11-19T02:01:13;7.28;;;3.08;;
53688;SDS011;39583;54.682;30.662;2023-11-19T02:03:43;5.72;;;2.58;;
53688;SDS011;39583;54.682;30.662;2023-11-19T02:06:12;5.65;;;2.30;;
53688;SDS011;39583;54.682;30.662;2023-11-19T02:08:42;4.35;;;2.53;;
53688;SDS011;39583;54.682;30.662;2023-11-19T02:11:11;4.72;;;2.78;;
53688;SDS011;39583;54.682;30.662;2023-11-19T02:13:39;10.52;;;3.88;;
53688;SDS011;39583;54.682;30.662;2023-11-19T02:16:10;6.95;;;2.95;;
53688;SDS011;39583;54.682;30.662;2023-11-19T02:18:38;7.22;;;2.35;;
53688;SDS011;39583;54.682;30.662;2023-11-19T02:21:07;6.53;;;2.53;;
53688;SDS011;39583;54.682;30.662;2023-11-19T02:23:36;5.20;;;2.63;;
53688;SDS011;39583;54.682;30.662;2023-11-19T02:26:09;6.40;;;3.13;;
53688;SDS011;39583;54.682;30.662;2023-11-19T02:28:41;6.18;;;2.58;;
53688;SDS011;39583;54.682;30.662;2023-11-19T02:31:10;6.72;;;3.75;;
53688;SDS011;39583;54.682;30.662;2023-11-19T02:33:38;7.93;;;3.08;;
53688;SDS011;39583;54.682;30.662;2023-11-19T02:36:07;5.43;;;3.53;;
53688;SDS011;39583;54.682;30.662;2023-11-19T02:38:36;8.57;;;3.30;;
53688;SDS011;39583;54.682;30.662;2023-11-19T02:41:06;7.15;;;3.55;;
53688;SDS011;39583;54.682;30.662;2023-11-19T02:43:36;6.80;;;3.05;;
53688;SDS011;39583;54.682;30.662;2023-11-19T02:46:05;7.57;;;3.22;;
53688;SDS011;39583;54.682;30.662;2023-11-19T02:48:39;8.45;;;3.45;;
53688;SDS011;39583;54.682;30.662;2023-11-19T02:51:08;5.68;;;3.15;;
53688;SDS011;39583;54.682;30.662;2023-11-19T02:53:37;6.93;;;3.53;;
53688;SDS011;39583;54.682;30.662;2023-11-19T02:56:07;6.32;;;3.30;;
53688;SDS011;39583;54.682;30.662;2023-11-19T02:58:56;11.15;;;3.92;;
53688;SDS011;39583;54.682;30.662;2023-11-19T03:01:24;7.25;;;3.85;;
53688;SDS011;39583;54.682;30.662;2023-11-19T03:03:59;8.40;;;2.78;;
53688;SDS011;39583;54.682;30.662;2023-11-19T03:06:30;7.43;;;3.78;;
53688;SDS011;39583;54.682;30.662;2023-11-19T03:08:59;6.45;;;3.47;;
53688;SDS011;39583;54.682;30.662;2023-11-19T03:11:33;11.52;;;3.33;;
53688;SDS011;39583;54.682;30.662;2023-11-19T03:14:00;5.07;;;2.50;;
53688;SDS011;39583;54.682;30.662;2023-11-19T03:16:30;5.97;;;3.30;;
53688;SDS011;39583;54.682;30.662;2023-11-19T03:18:58;4.88;;;2.97;;
53688;SDS011;39583;54.682;30.662;2023-11-19T03:21:28;4.78;;;2.83;;
53688;SDS011;39583;54.682;30.662;2023-11-19T03:23:57;5.03;;;2.63;;
53688;SDS011;39583;54.682;30.662;2023-11-19T03:26:29;6.25;;;2.80;;
53688;SDS011;39583;54.682;30.662;2023-11-19T03:28:57;6.80;;;2.03;;
53688;SDS011;39583;54.682;30.662;2023-11-19T03:31:25;4.57;;;2.40;;
53688;SDS011;39583;54.682;30.662;2023-11-19T03:33:54;3.22;;;1.98;;
53688;SDS011;39583;54.682;30.662;2023-11-19T03:36:25;3.38;;;2.83;;
53688;SDS011;39583;54.682;30.662;2023-11-19T03:39:00;3.65;;;2.45;;
53688;SDS011;39583;54.682;30.662;2023-11-19T03:41:28;6.75;;;3.08;;
53688;SDS011;39583;54.682;30.662;2023-11-19T03:44:08;5.03;;;2.58;;
53688;SDS011;39583;54.682;30.662;2023-11-19T03:46:35;5.55;;;3.22;;
53688;SDS011;39583;54.682;30.662;2023-11-19T03:49:05;5.35;;;2.75;;
53688;SDS011;39583;54.682;30.662;2023-11-19T03:51:34;4.57;;;2.65;;
53688;SDS011;39583;54.682;30.662;2023-11-19T03:54:02;6.60;;;3.47;;
53688;SDS011;39583;54.682;30.662;2023-11-19T03:56:31;4.32;;;2.60;;
53688;SDS011;39583;54.682;30.662;2023-11-19T03:59:01;4.45;;;2.75;;
53688;SDS011;39583;54.682;30.662;2023-11-19T04:01:31;4.57;;;2.47;;
53688;SDS011;39583;54.682;30.662;2023-11-19T04:04:00;5.50;;;2.72;;
53688;SDS011;39583;54.682;30.662;2023-11-19T04:06:29;15.23;;;2.28;;
53688;SDS011;39583;54.682;30.662;2023-11-19T04:08:57;4.10;;;2.17;;
53688;SDS011;39583;54.682;30.662;2023-11-19T04:11:35;5.70;;;3.53;;
53688;SDS011;39583;54.682;30.662;2023-11-19T04:14:04;7.10;;;2.90;;
53688;SDS011;39583;54.682;30.662;2023-11-19T04:16:32;5.80;;;3.10;;
53688;SDS011;39583;54.682;30.662;2023-11-19T04:19:01;5.80;;;3.05;;
53688;SDS011;39583;54.682;30.662;2023-11-19T04:21:29;6.25;;;3.10;;
53688;SDS011;39583;54.682;30.662;2023-11-19T04:23:57;11.25;;;3.70;;
53688;SDS011;39583;54.682;30.662;2023-11-19T04:26:25;8.63;;;3.28;;
53688;SDS011;39583;54.682;30.662;2023-11-19T04:28:57;6.78;;;3.30;;
53688;SDS011;39583;54.682;30.662;2023-11-19T04:31:29;9.57;;;3.40;;
53688;SDS011;39583;54.682;30.662;2023-11-19T04:34:00;5.53;;;3.20;;
53688;SDS011;39583;54.682;30.662;2023-11-19T04:36:28;5.35;;;2.80;;
53688;SDS011;39583;54.682;30.662;2023-11-19T04:38:57;9.13;;;3.92;;
53688;SDS011;39583;54.682;30.662;2023-11-19T04:41:27;6.43;;;3.20;;
53688;SDS011;39583;54.682;30.662;2023-11-19T04:43:55;8.35;;;3.95;;
53688;SDS011;39583;54.682;30.662;2023-11-19T04:46:23;6.50;;;3.55;;
53688;SDS011;39583;54.682;30.662;2023-11-19T04:48:51;5.22;;;3.05;;
53688;SDS011;39583;54.682;30.662;2023-11-19T04:51:19;6.70;;;2.08;;
53688;SDS011;39583;54.682;30.662;2023-11-19T04:53:47;2.72;;;1.95;;
53688;SDS011;39583;54.682;30.662;2023-11-19T04:56:14;5.53;;;2.78;;
53688;SDS011;39583;54.682;30.662;2023-11-19T04:58:43;5.05;;;2.50;;
53688;SDS011;39583;54.682;30.662;2023-11-19T05:01:15;4.47;;;2.60;;
53688;SDS011;39583;54.682;30.662;2023-11-19T05:03:45;4.30;;;2.47;;
53688;SDS011;39583;54.682;30.662;2023-11-19T05:06:14;4.93;;;3.00;;
53688;SDS011;39583;54.682;30.662;2023-11-19T05:08:43;5.07;;;2.95;;
53688;SDS011;39583;54.682;30.662;2023-11-19T05:11:12;5.18;;;2.70;;
53688;SDS011;39583;54.682;30.662;2023-11-19T05:13:45;4.82;;;3.25;;
53688;SDS011;39583;54.682;30.662;2023-11-19T05:16:13;3.90;;;2.58;;
53688;SDS011;39583;54.682;30.662;2023-11-19T05:18:42;6.35;;;3.17;;
53688;SDS011;39583;54.682;30.662;2023-11-19T05:21:10;10.23;;;3.22;;
53688;SDS011;39583;54.682;30.662;2023-11-19T05:23:38;4.63;;;2.70;;
53688;SDS011;39583;54.682;30.662;2023-11-19T05:26:06;4.53;;;2.58;;
53688;SDS011;39583;54.682;30.662;2023-11-19T05:28:34;4.90;;;2.40;;
53688;SDS011;39583;54.682;30.662;2023-11-19T05:31:02;5.70;;;3.40;;
53688;SDS011;39583;54.682;30.662;2023-11-19T05:33:30;9.20;;;3.65;;
53688;SDS011;39583;54.682;30.662;2023-11-19T05:35:58;6.30;;;3.10;;
53688;SDS011;39583;54.682;30.662;2023-11-19T05:38:26;7.03;;;2.55;;
53688;SDS011;39583;54.682;30.662;2023-11-19T05:40:56;5.15;;;2.88;;
53688;SDS011;39583;54.682;30.662;2023-11-19T05:43:24;11.95;;;3.15;;
53688;SDS011;39583;54.682;30.662;2023-11-19T05:45:52;5.00;;;2.90;;
53688;SDS011;39583;54.682;30.662;2023-11-19T05:48:20;3.78;;;2.40;;
53688;SDS011;39583;54.682;30.662;2023-11-19T05:50:48;5.22;;;2.65;;
53688;SDS011;39583;54.682;30.662;2023-11-19T05:53:17;9.13;;;4.35;;
53688;SDS011;39583;54.682;30.662;2023-11-19T05:55:47;5.78;;;2.97;;
53688;SDS011;39583;54.682;30.662;2023-11-19T05:58:37;5.43;;;2.50;;
53688;SDS011;39583;54.682;30.662;2023-11-19T06:01:06;7.22;;;2.75;;
53688;SDS011;39583;54.682;30.662;2023-11-19T06:03:35;9.38;;;2.80;;
53688;SDS011;39583;54.682;30.662;2023-11-19T06:06:04;8.30;;;3.15;;
53688;SDS011;39583;54.682;30.662;2023-11-19T06:08:34;9.55;;;4.43;;
53688;SDS011;39583;54.682;30.662;2023-11-19T06:11:02;7.20;;;3.80;;
53688;SDS011;39583;54.682;30.662;2023-11-19T06:13:30;9.27;;;4.50;;
53688;SDS011;39583;54.682;30.662;2023-11-19T06:15:59;9.75;;;4.55;;
53688;SDS011;39583;54.682;30.662;2023-11-19T06:18:27;7.78;;;4.40;;
53688;SDS011;39583;54.682;30.662;2023-11-19T06:20:55;7.57;;;3.70;;
53688;SDS011;39583;54.682;30.662;2023-11-19T06:23:23;11.68;;;3.85;;
53688;SDS011;39583;54.682;30.662;2023-11-19T06:25:51;6.03;;;4.20;;
53688;SDS011;39583;54.682;30.662;2023-11-19T06:28:19;7.10;;;3.70;;
53688;SDS011;39583;54.682;30.662;2023-11-19T06:30:49;13.07;;;3.72;;
53688;SDS011;39583;54.682;30.662;2023-11-19T06:33:17;9.25;;;4.65;;
53688;SDS011;39583;54.682;30.662;2023-11-19T06:35:47;6.82;;;3.38;;
53688;SDS011;39583;54.682;30.662;2023-11-19T06:38:15;12.23;;;4.43;;
53688;SDS011;39583;54.682;30.662;2023-11-19T06:40:43;10.63;;;4.30;;
53688;SDS011;39583;54.682;30.662;2023-11-19T06:43:11;7.15;;;3.88;;
53688;SDS011;39583;54.682;30.662;2023-11-19T06:45:39;7.40;;;3.63;;
53688;SDS011;39583;54.682;30.662;2023-11-19T06:48:06;10.18;;;4.97;;
53688;SDS011;39583;54.682;30.662;2023-11-19T06:50:35;10.52;;;3.47;;
53688;SDS011;39583;54.682;30.662;2023-11-19T06:53:03;6.72;;;4.03;;
53688;SDS011;39583;54.682;30.662;2023-11-19T06:55:33;7.35;;;3.63;;
53688;SDS011;39583;54.682;30.662;2023-11-19T06:58:02;5.97;;;3.15;;
53688;SDS011;39583;54.682;30.662;2023-11-19T07:00:30;5.45;;;3.38;;
53688;SDS011;39583;54.682;30.662;2023-11-19T07:03:00;6.00;;;3.28;;
53688;SDS011;39583;54.682;30.662;2023-11-19T07:05:31;8.65;;;2.97;;
53688;SDS011;39583;54.682;30.662;2023-11-19T07:08:00;7.50;;;3.75;;
53688;SDS011;39583;54.682;30.662;2023-11-19T07:10:28;5.95;;;3.08;;
53688;SDS011;39583;54.682;30.662;2023-11-19T07:12:57;6.55;;;3.47;;
53688;SDS011;39583;54.682;30.662;2023-11-19T07:15:26;6.30;;;3.00;;
53688;SDS011;39583;54.682;30.662;2023-11-19T07:17:53;6.72;;;3.63;;
53688;SDS011;39583;54.682;30.662;2023-11-19T07:20:25;8.55;;;4.13;;
53688;SDS011;39583;54.682;30.662;2023-11-19T07:22:54;7.75;;;3.75;;
53688;SDS011;39583;54.682;30.662;2023-11-19T07:25:24;5.88;;;3.17;;
53688;SDS011;39583;54.682;30.662;2023-11-19T07:27:52;6.63;;;3.83;;
53688;SDS011;39583;54.682;30.662;2023-11-19T07:30:20;5.10;;;3.50;;
53688;SDS011;39583;54.682;30.662;2023-11-19T07:32:48;6.88;;;4.25;;
53688;SDS011;39583;54.682;30.662;2023-11-19T07:35:15;7.82;;;4.55;;
53688;SDS011;39583;54.682;30.662;2023-11-19T07:37:44;9.10;;;3.95;;
53688;SDS011;39583;54.682;30.662;2023-11-19T07:40:13;12.10;;;4.18;;
53688;SDS011;39583;54.682;30.662;2023-11-19T07:42:41;9.60;;;4.18;;
53688;SDS011;39583;54.682;30.662;2023-11-19T07:45:08;9.23;;;4.53;;
53688;SDS011;39583;54.682;30.662;2023-11-19T07:47:36;7.72;;;4.63;;
53688;SDS011;39583;54.682;30.662;2023-11-19T07:50:05;8.82;;;4.40;;
53688;SDS011;39583;54.682;30.662;2023-11-19T07:52:33;7.43;;;3.15;;
53688;SDS011;39583;54.682;30.662;2023-11-19T07:55:00;6.15;;;3.33;;
53688;SDS011;39583;54.682;30.662;2023-11-19T07:57:29;5.57;;;3.67;;
53688;SDS011;39583;54.682;30.662;2023-11-19T07:59:57;8.15;;;4.20;;
53688;SDS011;39583;54.682;30.662;2023-11-19T08:02:25;7.72;;;4.05;;
53688;SDS011;39583;54.682;30.662;2023-11-19T08:04:53;6.38;;;3.22;;
53688;SDS011;39583;54.682;30.662;2023-11-19T08:07:22;6.70;;;4.85;;
53688;SDS011;39583;54.682;30.662;2023-11-19T08:09:49;7.88;;;3.97;;
53688;SDS011;39583;54.682;30.662;2023-11-19T08:12:17;8.73;;;4.65;;
53688;SDS011;39583;54.682;30.662;2023-11-19T08:14:44;5.32;;;3.13;;
53688;SDS011;39583;54.682;30.662;2023-11-19T08:17:12;9.18;;;4.78;;
53688;SDS011;39583;54.682;30.662;2023-11-19T08:19:40;6.15;;;3.50;;
53688;SDS011;39583;54.682;30.662;2023-11-19T08:22:10;7.03;;;4.25;;
53688;SDS011;39583;54.682;30.662;2023-11-19T08:24:42;8.75;;;4.70;;
53688;SDS011;39583;54.682;30.662;2023-11-19T08:27:15;8.75;;;4.10;;
53688;SDS011;39583;54.682;30.662;2023-11-19T08:29:45;8.65;;;3.97;;
53688;SDS011;39583;54.682;30.662;2023-11-19T08:32:13;8.68;;;3.47;;
53688;SDS011;39583;54.682;30.662;2023-11-19T08:34:41;8.20;;;4.10;;
53688;SDS011;39583;54.682;30.662;2023-11-19T08:37:12;5.60;;;3.35;;
53688;SDS011;39583;54.682;30.662;2023-11-19T08:39:40;5.38;;;3.03;;
53688;SDS011;39583;54.682;30.662;2023-11-19T08:42:10;5.80;;;3.33;;
53688;SDS011;39583;54.682;30.662;2023-11-19T08:44:38;5.35;;;3.50;;
53688;SDS011;39583;54.682;30.662;2023-11-19T08:47:08;7.43;;;3.50;;
53688;SDS011;39583;54.682;30.662;2023-11-19T08:49:39;8.48;;;3.45;;
53688;SDS011;39583;54.682;30.662;2023-11-19T08:52:12;3.92;;;2.90;;
53688;SDS011;39583;54.682;30.662;2023-11-19T08:54:43;6.50;;;3.70;;
53688;SDS011;39583;54.682;30.662;2023-11-19T08:57:11;7.60;;;3.30;;
53688;SDS011;39583;54.682;30.662;2023-11-19T08:59:39;8.93;;;3.60;;
53688;SDS011;39583;54.682;30.662;2023-11-19T09:02:07;10.77;;;3.65;;
53688;SDS011;39583;54.682;30.662;2023-11-19T09:04:35;10.38;;;3.67;;
53688;SDS011;39583;54.682;30.662;2023-11-19T09:07:03;9.55;;;4.90;;
53688;SDS011;39583;54.682;30.662;2023-11-19T09:09:31;5.90;;;3.08;;
53688;SDS011;39583;54.682;30.662;2023-11-19T09:12:02;6.25;;;3.78;;
53688;SDS011;39583;54.682;30.662;2023-11-19T09:14:30;10.35;;;3.95;;
53688;SDS011;39583;54.682;30.662;2023-11-19T09:16:58;4.68;;;2.83;;
53688;SDS011;39583;54.682;30.662;2023-11-19T09:19:27;9.40;;;4.10;;
53688;SDS011;39583;54.682;30.662;2023-11-19T09:21:54;6.75;;;4.20;;
53688;SDS011;39583;54.682;30.662;2023-11-19T09:24:22;8.60;;;4.25;;
53688;SDS011;39583;54.682;30.662;2023-11-19T09:26:50;6.72;;;3.25;;
53688;SDS011;39583;54.682;30.662;2023-11-19T09:29:19;8.27;;;4.00;;
53688;SDS011;39583;54.682;30.662;2023-11-19T09:31:47;8.95;;;3.63;;
53688;SDS011;39583;54.682;30.662;2023-11-19T09:34:14;9.10;;;4.28;;
53688;SDS011;39583;54.682;30.662;2023-11-19T09:36:42;7.95;;;4.07;;
53688;SDS011;39583;54.682;30.662;2023-11-19T09:39:11;8.20;;;4.22;;
53688;SDS011;39583;54.682;30.662;2023-11-19T09:41:41;8.13;;;3.72;;
53688;SDS011;39583;54.682;30.662;2023-11-19T09:44:09;7.40;;;3.58;;
53688;SDS011;39583;54.682;30.662;2023-11-19T09:46:40;8.02;;;4.45;;
53688;SDS011;39583;54.682;30.662;2023-11-19T09:49:08;8.95;;;3.85;;
53688;SDS011;39583;54.682;30.662;2023-11-19T09:51:37;6.50;;;3.15;;
53688;SDS011;39583;54.682;30.662;2023-11-19T09:54:05;7.22;;;3.47;;
53688;SDS011;39583;54.682;30.662;2023-11-19T09:56:33;5.07;;;2.85;;
53688;SDS011;39583;54.682;30.662;2023-11-19T09:59:03;5.80;;;3.65;;
53688;SDS011;39583;54.682;30.662;2023-11-19T10:01:32;9.23;;;4.40;;
53688;SDS011;39583;54.682;30.662;2023-11-19T10:04:01;11.65;;;4.97;;
53688;SDS011;39583;54.682;30.662;2023-11-19T10:06:29;6.93;;;3.83;;
53688;SDS011;39583;54.682;30.662;2023-11-19T10:08:56;7.13;;;3.38;;
53688;SDS011;39583;54.682;30.662;2023-11-19T10:11:24;6.65;;;3.75;;
53688;SDS011;39583;54.682;30.662;2023-11-19T10:13:53;7.72;;;3.75;;
53688;SDS011;39583;54.682;30.662;2023-11-19T10:16:27;5.18;;;2.90;;
53688;SDS011;39583;54.682;30.662;2023-11-19T10:18:56;6.63;;;3.28;;
53688;SDS011;39583;54.682;30.662;2023-11-19T10:21:24;7.47;;;4.10;;
53688;SDS011;39583;54.682;30.662;2023-11-19T10:23:52;5.68;;;3.53;;
53688;SDS011;39583;54.682;30.662;2023-11-19T10:26:27;9.80;;;4.38;;
53688;SDS011;39583;54.682;30.662;2023-11-19T10:28:55;6.72;;;2.97;;
53688;SDS011;39583;54.682;30.662;2023-11-19T10:31:23;8.77;;;4.22;;
53688;SDS011;39583;54.682;30.662;2023-11-19T10:33:52;7.97;;;4.25;;
53688;SDS011;39583;54.682;30.662;2023-11-19T10:36:20;9.93;;;4.07;;
53688;SDS011;39583;54.682;30.662;2023-11-19T10:38:53;7.93;;;4.00;;
53688;SDS011;39583;54.682;30.662;2023-11-19T10:41:32;5.43;;;2.80;;
53688;SDS011;39583;54.682;30.662;2023-11-19T10:43:59;9.63;;;4.60;;
53688;SDS011;39583;54.682;30.662;2023-11-19T10:46:37;9.43;;;4.45;;
53688;SDS011;39583;54.682;30.662;2023-11-19T10:49:08;7.18;;;4.07;;
53688;SDS011;39583;54.682;30.662;2023-11-19T10:51:36;10.48;;;4.13;;
53688;SDS011;39583;54.682;30.662;2023-11-19T10:54:11;8.20;;;4.35;;
53688;SDS011;39583;54.682;30.662;2023-11-19T10:56:46;9.43;;;4.55;;
53688;SDS011;39583;54.682;30.662;2023-11-19T10:59:26;7.32;;;3.83;;
53688;SDS011;39583;54.682;30.662;2023-11-19T11:02:00;7.85;;;3.65;;
53688;SDS011;39583;54.682;30.662;2023-11-19T11:04:33;7.97;;;3.92;;
53688;SDS011;39583;54.682;30.662;2023-11-19T11:07:09;9.48;;;3.58;;
53688;SDS011;39583;54.682;30.662;2023-11-19T11:09:37;9.15;;;3.75;;
53688;SDS011;39583;54.682;30.662;2023-11-19T11:12:05;7.97;;;3.83;;
53688;SDS011;39583;54.682;30.662;2023-11-19T11:14:34;6.53;;;3.40;;
53688;SDS011;39583;54.682;30.662;2023-11-19T11:17:04;11.68;;;4.63;;
53688;SDS011;39583;54.682;30.662;2023-11-19T11:19:35;9.00;;;3.72;;
53688;SDS011;39583;54.682;30.662;2023-11-19T11:22:04;6.53;;;3.45;;
53688;SDS011;39583;54.682;30.662;2023-11-19T11:30:05;6.63;;;2.45;;
53688;SDS011;39583;54.682;30.662;2023-11-19T11:35:55;8.52;;;3.45;;
53688;SDS011;39583;54.682;30.662;2023-11-19T11:38:36;8.80;;;4.32;;
53688;SDS011;39583;54.682;30.662;2023-11-19T11:41:15;12.02;;;4.38;;
53688;SDS011;39583;54.682;30.662;2023-11-19T11:43:49;8.95;;;4.50;;
53688;SDS011;39583;54.682;30.662;2023-11-19T11:49:07;6.85;;;3.53;;
53688;SDS011;39583;54.682;30.662;2023-11-19T12:02:09;7.53;;;3.15;;
53688;SDS011;39583;54.682;30.662;2023-11-19T12:04:41;14.70;;;4.75;;
53688;SDS011;39583;54.682;30.662;2023-11-19T12:07:13;10.23;;;4.80;;
53688;SDS011;39583;54.682;30.662;2023-11-19T12:09:49;11.50;;;3.85;;
53688;SDS011;39583;54.682;30.662;2023-11-19T12:12:23;5.90;;;3.33;;
53688;SDS011;39583;54.682;30.662;2023-11-19T12:15:09;8.13;;;4.22;;
53688;SDS011;39583;54.682;30.662;2023-11-19T12:20:06;6.15;;;3.22;;
53688;SDS011;39583;54.682;30.662;2023-11-19T12:22:38;8.25;;;3.15;;
53688;SDS011;39583;54.682;30.662;2023-11-19T12:25:08;6.15;;;3.40;;
53688;SDS011;39583;54.682;30.662;2023-11-19T12:27:39;5.28;;;3.10;;
53688;SDS011;39583;54.682;30.662;2023-11-19T12:30:08;5.60;;;2.78;;
53688;SDS011;39583;54.682;30.662;2023-11-19T12:35:11;6.68;;;3.17;;
53688;SDS011;39583;54.682;30.662;2023-11-19T12:37:45;6.50;;;3.20;;
53688;SDS011;39583;54.682;30.662;2023-11-19T12:40:15;5.30;;;3.13;;
53688;SDS011;39583;54.682;30.662;2023-11-19T12:42:50;5.45;;;2.95;;
53688;SDS011;39583;54.682;30.662;2023-11-19T12:45:22;6.63;;;3.10;;
53688;SDS011;39583;54.682;30.662;2023-11-19T12:48:07;5.05;;;2.70;;
53688;SDS011;39583;54.682;30.662;2023-11-19T12:50:50;5.70;;;3.22;;
53688;SDS011;39583;54.682;30.662;2023-11-19T12:53:20;5.38;;;2.95;;
53688;SDS011;39583;54.682;30.662;2023-11-19T12:55:49;13.02;;;3.50;;
53688;SDS011;39583;54.682;30.662;2023-11-19T12:58:34;5.70;;;3.30;;
53688;SDS011;39583;54.682;30.662;2023-11-19T13:01:04;5.47;;;2.95;;
53688;SDS011;39583;54.682;30.662;2023-11-19T13:03:33;6.68;;;3.38;;
53688;SDS011;39583;54.682;30.662;2023-11-19T13:06:03;5.72;;;2.92;;
53688;SDS011;39583;54.682;30.662;2023-11-19T13:08:37;10.88;;;3.67;;
53688;SDS011;39583;54.682;30.662;2023-11-19T13:11:31;7.45;;;3.38;;
53688;SDS011;39583;54.682;30.662;2023-11-19T13:14:03;7.07;;;3.22;;
53688;SDS011;39583;54.682;30.662;2023-11-19T13:16:32;7.35;;;3.35;;
53688;SDS011;39583;54.682;30.662;2023-11-19T13:19:00;6.72;;;3.53;;
53688;SDS011;39583;54.682;30.662;2023-11-19T13:21:28;5.55;;;2.80;;
53688;SDS011;39583;54.682;30.662;2023-11-19T13:23:57;5.10;;;3.13;;
53688;SDS011;39583;54.682;30.662;2023-11-19T13:26:24;7.45;;;3.58;;
53688;SDS011;39583;54.682;30.662;2023-11-19T13:28:53;7.50;;;3.40;;
53688;SDS011;39583;54.682;30.662;2023-11-19T13:31:25;7.30;;;3.30;;
53688;SDS011;39583;54.682;30.662;2023-11-19T13:33:55;6.88;;;2.92;;
53688;SDS011;39583;54.682;30.662;2023-11-19T13:36:26;9.60;;;3.72;;
53688;SDS011;39583;54.682;30.662;2023-11-19T13:38:56;7.18;;;3.03;;
53688;SDS011;39583;54.682;30.662;2023-11-19T13:41:27;10.95;;;3.88;;
53688;SDS011;39583;54.682;30.662;2023-11-19T13:43:55;6.10;;;2.90;;
53688;SDS011;39583;54.682;30.662;2023-11-19T13:46:22;4.97;;;2.72;;
53688;SDS011;39583;54.682;30.662;2023-11-19T13:48:50;6.63;;;3.33;;
53688;SDS011;39583;54.682;30.662;2023-11-19T13:51:19;5.38;;;2.60;;
53688;SDS011;39583;54.682;30.662;2023-11-19T13:53:47;6.97;;;3.35;;
53688;SDS011;39583;54.682;30.662;2023-11-19T13:56:18;6.65;;;2.55;;
53688;SDS011;39583;54.682;30.662;2023-11-19T13:58:46;5.68;;;3.28;;
53688;SDS011;39583;54.682;30.662;2023-11-19T14:01:14;4.65;;;2.60;;
53688;SDS011;39583;54.682;30.662;2023-11-19T14:03:42;10.82;;;2.60;;
53688;SDS011;39583;54.682;30.662;2023-11-19T14:06:10;5.13;;;3.05;;
53688;SDS011;39583;54.682;30.662;2023-11-19T14:08:41;6.18;;;3.17;;
53688;SDS011;39583;54.682;30.662;2023-11-19T14:11:09;6.70;;;3.03;;
53688;SDS011;39583;54.682;30.662;2023-11-19T14:13:36;6.18;;;3.00;;
53688;SDS011;39583;54.682;30.662;2023-11-19T14:16:05;6.93;;;2.85;;
53688;SDS011;39583;54.682;30.662;2023-11-19T14:18:36;5.18;;;2.90;;
53688;SDS011;39583;54.682;30.662;2023-11-19T14:21:04;7.45;;;2.50;;
53688;SDS011;39583;54.682;30.662;2023-11-19T14:23:33;7.15;;;2.78;;
53688;SDS011;39583;54.682;30.662;2023-11-19T14:26:01;6.75;;;3.17;;
53688;SDS011;39583;54.682;30.662;2023-11-19T14:28:31;7.72;;;2.45;;
53688;SDS011;39583;54.682;30.662;2023-11-19T14:31:02;4.88;;;2.70;;
53688;SDS011;39583;54.682;30.662;2023-11-19T14:33:30;4.45;;;2.45;;
53688;SDS011;39583;54.682;30.662;2023-11-19T14:35:58;3.72;;;2.30;;
53688;SDS011;39583;54.682;30.662;2023-11-19T14:38:26;8.18;;;2.45;;
53688;SDS011;39583;54.682;30.662;2023-11-19T14:40:55;4.45;;;2.10;;
53688;SDS011;39583;54.682;30.662;2023-11-19T14:43:31;3.55;;;2.30;;
53688;SDS011;39583;54.682;30.662;2023-11-19T14:45:59;3.50;;;1.92;;
53688;SDS011;39583;54.682;30.662;2023-11-19T14:48:31;5.45;;;2.38;;
53688;SDS011;39583;54.682;30.662;2023-11-19T14:51:01;4.93;;;2.67;;
53688;SDS011;39583;54.682;30.662;2023-11-19T14:53:31;4.68;;;2.30;;
53688;SDS011;39583;54.682;30.662;2023-11-19T14:56:00;3.35;;;2.17;;
53688;SDS011;39583;54.682;30.662;2023-11-19T14:58:28;6.78;;;2.45;;
53688;SDS011;39583;54.682;30.662;2023-11-19T15:00:56;3.58;;;2.38;;
53688;SDS011;39583;54.682;30.662;2023-11-19T15:03:27;6.25;;;1.80;;
53688;SDS011;39583;54.682;30.662;2023-11-19T15:05:56;3.70;;;1.98;;
53688;SDS011;39583;54.682;30.662;2023-11-19T15:08:28;3.13;;;1.80;;
53688;SDS011;39583;54.682;30.662;2023-11-19T15:10:58;3.72;;;2.40;;
53688;SDS011;39583;54.682;30.662;2023-11-19T15:13:29;6.10;;;3.15;;
53688;SDS011;39583;54.682;30.662;2023-11-19T15:15:58;4.07;;;2.58;;